createdAt,value
2018-09-21T00:01:32.658Z,1.70
2018-09-21T00:04:02.583Z,0.23
2018-09-21T00:06:31.545Z,0.33
2018-09-21T00:09:00.369Z,0.70
2018-09-21T00:11:29.249Z,0.40
2018-09-21T00:13:58.144Z,0.57
2018-09-21T00:16:26.821Z,3.33
2018-09-21T00:18:55.702Z,1.00
2018-09-21T00:21:24.495Z,0.97
2018-09-21T00:23:53.292Z,1.27
2018-09-21T00:26:22.243Z,0.90
2018-09-21T00:28:50.994Z,2.13
2018-09-21T00:31:19.728Z,1.50
2018-09-21T00:33:48.540Z,0.87
2018-09-21T00:36:17.263Z,1.37
2018-09-21T00:38:46.463Z,1.03
2018-09-21T00:41:15.106Z,1.50
2018-09-21T00:43:43.927Z,0.53
2018-09-21T00:46:12.714Z,0.67
2018-09-21T00:48:41.354Z,1.97
2018-09-21T00:51:11.293Z,0.40
2018-09-21T00:53:40.124Z,0.40
2018-09-21T00:56:09.070Z,1.83
2018-09-21T00:58:37.968Z,4.00
2018-09-21T01:01:06.750Z,1.03
2018-09-21T01:03:35.456Z,0.47
2018-09-21T01:06:04.163Z,1.60
2018-09-21T01:08:33.073Z,1.90
2018-09-21T01:11:01.856Z,1.60
2018-09-21T01:13:30.530Z,0.77
2018-09-21T01:15:59.402Z,2.47
2018-09-21T01:18:28.425Z,2.10
2018-09-21T01:20:57.115Z,2.03
2018-09-21T01:23:25.842Z,2.40
2018-09-21T01:25:54.548Z,2.13
2018-09-21T01:28:23.433Z,1.43
2018-09-21T01:30:52.367Z,2.03
2018-09-21T01:33:21.025Z,2.00
2018-09-21T01:35:49.750Z,2.23
2018-09-21T01:38:18.636Z,1.33
2018-09-21T01:40:47.459Z,1.30
2018-09-21T01:43:16.623Z,4.53
2018-09-21T01:45:45.480Z,0.60
2018-09-21T01:48:14.613Z,1.73
2018-09-21T01:50:43.353Z,0.93
2018-09-21T01:53:12.083Z,1.27
2018-09-21T01:55:41.041Z,1.73
2018-09-21T01:58:09.730Z,2.23
2018-09-21T02:00:38.615Z,1.00
2018-09-21T02:03:07.791Z,1.40
2018-09-21T02:05:36.666Z,2.60
2018-09-21T02:08:05.385Z,5.07
2018-09-21T02:10:34.339Z,1.50
2018-09-21T02:13:02.973Z,6.63
2018-09-21T02:15:31.812Z,1.40
2018-09-21T02:18:00.519Z,1.60
2018-09-21T02:20:29.200Z,1.03
2018-09-21T02:22:57.940Z,1.17
2018-09-21T02:25:26.601Z,2.03
2018-09-21T02:27:55.323Z,1.43
2018-09-21T02:30:23.948Z,2.13
2018-09-21T02:32:52.662Z,1.23
2018-09-21T02:35:21.510Z,1.97
2018-09-21T02:37:50.362Z,3.70
2018-09-21T02:40:19.015Z,2.77
2018-09-21T02:42:48.092Z,2.53
2018-09-21T02:45:16.795Z,1.17
2018-09-21T02:47:45.609Z,3.93
2018-09-21T02:50:14.273Z,1.67
2018-09-21T02:52:43.295Z,1.20
2018-09-21T02:55:11.999Z,2.47
2018-09-21T02:57:40.803Z,3.83
2018-09-21T03:00:10.041Z,3.00
2018-09-21T03:02:38.661Z,6.07
2018-09-21T03:05:07.890Z,3.07
2018-09-21T03:07:36.473Z,2.13
2018-09-21T03:10:05.397Z,3.60
2018-09-21T03:12:34.218Z,2.70
2018-09-21T03:15:02.860Z,2.70
2018-09-21T03:17:31.634Z,3.70
2018-09-21T03:20:00.488Z,4.27
2018-09-21T03:22:29.241Z,4.90
2018-09-21T03:24:58.000Z,5.80
2018-09-21T03:27:26.774Z,1.37
2018-09-21T03:29:55.346Z,1.77
2018-09-21T03:32:24.131Z,1.70
2018-09-21T03:34:52.900Z,2.30
2018-09-21T03:37:21.496Z,3.97
2018-09-21T03:39:50.275Z,1.50
2018-09-21T03:42:19.031Z,2.37
2018-09-21T03:44:47.751Z,3.73
2018-09-21T03:47:16.788Z,3.67
2018-09-21T03:49:45.519Z,2.97
2018-09-21T03:52:14.316Z,2.87
2018-09-21T03:54:43.060Z,2.20
2018-09-21T03:57:11.914Z,5.70
2018-09-21T03:59:40.808Z,2.60
2018-09-21T04:02:09.778Z,6.33
2018-09-21T04:04:41.513Z,6.07
2018-09-21T04:07:11.172Z,9.60
2018-09-21T04:09:40.030Z,3.13
2018-09-21T04:12:09.035Z,5.57
2018-09-21T04:14:37.700Z,6.20
2018-09-21T04:17:06.732Z,3.53
2018-09-21T04:19:35.501Z,2.80
2018-09-21T04:22:04.158Z,4.57
2018-09-21T04:24:32.796Z,1.80
2018-09-21T04:27:01.408Z,4.87
2018-09-21T04:29:30.146Z,4.67
2018-09-21T04:31:58.880Z,7.90
2018-09-21T04:34:27.724Z,2.93
2018-09-21T04:36:56.453Z,5.40
2018-09-21T04:39:25.206Z,3.97
2018-09-21T04:41:53.988Z,5.07
2018-09-21T04:44:22.690Z,8.80
2018-09-21T04:46:51.388Z,10.23
2018-09-21T04:49:20.170Z,4.57
2018-09-21T04:51:49.271Z,4.00
2018-09-21T04:54:18.047Z,4.57
2018-09-21T04:56:46.670Z,6.43
2018-09-21T04:59:15.665Z,3.03
2018-09-21T05:01:44.762Z,3.43
2018-09-21T05:04:14.493Z,7.63
2018-09-21T05:06:43.700Z,2.77
2018-09-21T05:09:12.672Z,2.43
2018-09-21T05:11:42.578Z,7.53
2018-09-21T05:14:11.840Z,5.63
2018-09-21T05:16:40.678Z,2.77
2018-09-21T05:19:10.043Z,8.90
2018-09-21T05:21:39.875Z,4.90
2018-09-21T05:24:09.381Z,3.67
2018-09-21T05:26:38.460Z,5.03
2018-09-21T05:29:08.493Z,6.60
2018-09-21T05:31:37.271Z,3.40
2018-09-21T05:34:06.311Z,4.50
2018-09-21T05:36:35.121Z,2.87
2018-09-21T05:39:04.005Z,2.10
2018-09-21T05:41:32.734Z,5.33
2018-09-21T05:44:01.304Z,3.23
2018-09-21T05:46:29.938Z,3.03
2018-09-21T05:48:58.559Z,2.60
2018-09-21T05:51:27.206Z,3.47
2018-09-21T05:53:55.965Z,6.40
2018-09-21T05:56:24.980Z,4.23
2018-09-21T05:58:53.730Z,2.60
2018-09-21T06:01:22.542Z,5.77
2018-09-21T06:03:51.294Z,2.73
2018-09-21T06:06:20.478Z,2.77
2018-09-21T06:08:49.156Z,2.90
2018-09-21T06:11:17.946Z,3.40
2018-09-21T06:13:46.807Z,8.10
2018-09-21T06:16:15.485Z,1.53
2018-09-21T06:18:44.492Z,2.77
2018-09-21T06:21:13.355Z,2.30
2018-09-21T06:23:42.027Z,3.93
2018-09-21T06:26:11.256Z,1.83
2018-09-21T06:28:40.146Z,0.77
2018-09-21T06:31:09.347Z,1.13
2018-09-21T06:33:38.448Z,2.80
2018-09-21T06:36:07.159Z,0.97
2018-09-21T06:38:36.031Z,1.03
2018-09-21T06:41:04.785Z,1.90
2018-09-21T06:43:33.573Z,1.00
2018-09-21T06:46:02.441Z,0.83
2018-09-21T06:48:31.177Z,3.37
2018-09-21T06:51:00.125Z,1.73
2018-09-21T06:53:28.704Z,4.30
2018-09-21T06:55:57.397Z,2.03
2018-09-21T06:58:26.247Z,3.30
2018-09-21T07:00:54.939Z,2.17
2018-09-21T07:03:23.703Z,3.37
2018-09-21T07:05:52.433Z,1.53
2018-09-21T07:08:21.368Z,1.13
2018-09-21T07:10:50.297Z,2.07
2018-09-21T07:13:19.094Z,2.47
2018-09-21T07:15:48.004Z,2.60
2018-09-21T07:18:23.470Z,0.73
2018-09-21T07:20:52.129Z,2.97
2018-09-21T07:23:21.043Z,4.80
2018-09-21T07:25:49.768Z,2.03
2018-09-21T07:28:18.401Z,2.07
2018-09-21T07:30:47.297Z,1.90
2018-09-21T07:33:16.065Z,1.87
2018-09-21T07:35:45.088Z,4.10
2018-09-21T07:38:14.149Z,1.87
2018-09-21T07:40:42.937Z,0.73
2018-09-21T07:43:12.175Z,1.13
2018-09-21T07:45:40.902Z,2.27
2018-09-21T07:48:10.201Z,2.43
2018-09-21T07:50:38.943Z,1.57
2018-09-21T07:53:07.806Z,1.00
2018-09-21T07:55:36.612Z,4.23
2018-09-21T07:58:05.509Z,1.10
2018-09-21T08:00:34.291Z,1.80
2018-09-21T08:03:03.123Z,1.67
2018-09-21T08:05:33.940Z,1.00
2018-09-21T08:08:04.357Z,2.83
2018-09-21T08:10:33.123Z,1.00
2018-09-21T08:13:02.369Z,1.40
2018-09-21T08:15:31.671Z,3.17
2018-09-21T08:18:00.624Z,1.50
2018-09-21T08:20:29.440Z,4.90
2018-09-21T08:22:58.267Z,1.93
2018-09-21T08:25:27.190Z,1.10
2018-09-21T08:27:55.925Z,4.40
2018-09-21T08:30:24.672Z,7.20
2018-09-21T08:32:53.400Z,3.30
2018-09-21T08:35:22.026Z,2.27
2018-09-21T08:37:50.764Z,4.63
2018-09-21T08:40:19.372Z,1.27
2018-09-21T08:42:48.679Z,2.83
2018-09-21T08:45:17.265Z,2.77
2018-09-21T08:47:46.005Z,1.60
2018-09-21T08:50:16.054Z,2.07
2018-09-21T08:52:44.940Z,4.07
2018-09-21T08:55:13.629Z,2.67
2018-09-21T08:57:42.540Z,3.97
2018-09-21T09:00:11.298Z,2.77
2018-09-21T09:02:40.194Z,1.70
2018-09-21T09:05:09.121Z,1.80
2018-09-21T09:07:38.549Z,1.23
2018-09-21T09:10:08.563Z,0.57
2018-09-21T09:12:38.614Z,1.90
2018-09-21T09:15:08.383Z,4.17
2018-09-21T09:17:37.298Z,4.17
2018-09-21T09:20:06.199Z,1.47
2018-09-21T09:22:35.058Z,1.23
2018-09-21T09:25:04.143Z,3.13
2018-09-21T09:27:33.026Z,4.83
2018-09-21T09:30:02.077Z,2.00
2018-09-21T09:32:30.771Z,2.13
2018-09-21T09:34:59.505Z,1.70
2018-09-21T09:37:28.778Z,2.80
2018-09-21T09:39:57.661Z,1.30
2018-09-21T09:42:26.594Z,2.67
2018-09-21T09:48:27.276Z,5.03
2018-09-21T09:50:56.061Z,1.70
2018-09-21T09:53:24.818Z,2.00
2018-09-21T09:55:53.546Z,1.67
2018-09-21T09:58:22.225Z,1.20
2018-09-21T10:00:51.944Z,2.03
2018-09-21T10:03:22.125Z,2.47
2018-09-21T10:05:51.185Z,0.67
2018-09-21T10:08:20.083Z,1.90
2018-09-21T10:10:49.152Z,1.73
2018-09-21T10:13:17.822Z,2.00
2018-09-21T10:15:46.800Z,1.27
2018-09-21T10:18:15.743Z,3.83
2018-09-21T10:20:44.765Z,1.90
2018-09-21T10:23:13.745Z,2.37
2018-09-21T10:25:42.380Z,0.93
2018-09-21T10:28:11.165Z,3.50
2018-09-21T10:30:39.849Z,1.50
2018-09-21T10:33:08.492Z,1.53
2018-09-21T10:35:37.259Z,7.60
2018-09-21T10:38:06.487Z,3.07
2018-09-21T10:40:35.424Z,0.80
2018-09-21T10:43:04.241Z,1.90
2018-09-21T10:45:32.953Z,2.95
2018-09-21T10:48:01.705Z,5.67
2018-09-21T10:50:30.740Z,3.40
2018-09-21T10:52:59.475Z,1.10
2018-09-21T10:55:28.357Z,2.60
2018-09-21T10:57:57.144Z,3.80
2018-09-21T11:00:25.838Z,1.57
2018-09-21T11:02:54.822Z,1.60
2018-09-21T11:05:23.792Z,3.17
2018-09-21T11:07:52.772Z,1.33
2018-09-21T11:10:21.531Z,2.80
2018-09-21T11:12:50.275Z,3.13
2018-09-21T11:15:19.020Z,2.77
2018-09-21T11:17:47.834Z,3.53
2018-09-21T11:20:16.596Z,1.77
2018-09-21T11:22:46.096Z,2.67
2018-09-21T11:25:15.121Z,2.60
2018-09-21T11:27:44.434Z,2.27
2018-09-21T11:30:13.419Z,1.90
2018-09-21T11:32:42.582Z,2.20
2018-09-21T11:35:11.425Z,3.53
2018-09-21T11:37:40.519Z,2.67
2018-09-21T11:40:09.300Z,5.13
2018-09-21T11:42:37.893Z,1.80
2018-09-21T11:45:07.384Z,4.47
2018-09-21T11:47:36.399Z,3.97
2018-09-21T11:50:05.098Z,3.87
2018-09-21T11:52:33.861Z,2.70
2018-09-21T11:55:02.533Z,3.63
2018-09-21T11:57:31.349Z,2.37
2018-09-21T12:00:00.470Z,4.40
2018-09-21T12:02:29.655Z,2.47
2018-09-21T12:04:58.478Z,2.03
2018-09-21T12:07:27.103Z,2.20
2018-09-21T12:09:55.897Z,2.40
2018-09-21T12:12:24.641Z,5.87
2018-09-21T12:14:53.434Z,1.93
2018-09-21T12:17:22.597Z,4.00
2018-09-21T12:19:51.586Z,2.13
2018-09-21T12:22:20.977Z,1.77
2018-09-21T12:24:49.917Z,3.63
2018-09-21T12:27:18.738Z,5.42
2018-09-21T12:29:47.691Z,1.67
2018-09-21T12:32:16.677Z,5.37
2018-09-21T12:34:45.568Z,2.57
2018-09-21T12:37:14.406Z,1.90
2018-09-21T12:39:43.327Z,5.63
2018-09-21T12:42:12.258Z,4.53
2018-09-21T12:44:40.959Z,5.63
2018-09-21T12:47:09.797Z,4.03
2018-09-21T12:49:39.239Z,9.13
2018-09-21T12:52:08.809Z,4.40
2018-09-21T12:54:38.127Z,3.97
2018-09-21T12:57:07.025Z,7.47
2018-09-21T12:59:35.894Z,4.87
2018-09-21T13:02:04.862Z,5.60
2018-09-21T13:04:33.670Z,6.73
2018-09-21T13:07:02.568Z,5.30
2018-09-21T13:09:32.564Z,6.10
2018-09-21T13:12:01.433Z,4.40
2018-09-21T13:14:30.070Z,9.53
2018-09-21T13:16:59.091Z,4.73
2018-09-21T13:19:28.001Z,6.70
2018-09-21T13:21:56.663Z,7.57
2018-09-21T13:24:25.728Z,5.53
2018-09-21T13:26:54.488Z,8.43
2018-09-21T13:29:23.201Z,6.17
2018-09-21T13:31:52.050Z,7.77
2018-09-21T13:34:20.835Z,8.17
2018-09-21T13:36:49.788Z,8.50
2018-09-21T13:39:18.480Z,11.50
2018-09-21T13:41:47.248Z,7.13
2018-09-21T13:44:15.856Z,8.90
2018-09-21T13:46:44.759Z,10.97
2018-09-21T13:49:13.923Z,11.27
2018-09-21T13:51:42.767Z,9.47
2018-09-21T13:54:11.522Z,8.57
2018-09-21T13:56:41.016Z,10.50
2018-09-21T13:59:09.732Z,6.07
2018-09-21T14:01:38.661Z,5.93
2018-09-21T14:04:07.634Z,7.90
2018-09-21T14:06:36.325Z,7.43
2018-09-21T14:09:06.281Z,7.40
2018-09-21T14:11:35.000Z,6.87
2018-09-21T14:14:04.009Z,11.10
2018-09-21T14:16:32.680Z,7.50
2018-09-21T14:19:01.396Z,4.60
2018-09-21T14:21:30.176Z,5.10
2018-09-21T14:23:58.844Z,6.07
2018-09-21T14:26:27.578Z,7.43
2018-09-21T14:28:56.520Z,8.57
2018-09-21T14:31:25.275Z,6.07
2018-09-21T14:34:24.549Z,5.47
2018-09-21T14:36:53.181Z,5.63
2018-09-21T14:39:21.970Z,5.13
2018-09-21T14:41:50.696Z,5.40
2018-09-21T14:44:19.581Z,6.33
2018-09-21T14:46:48.402Z,5.63
2018-09-21T14:49:17.504Z,3.97
2018-09-21T14:51:46.371Z,3.27
2018-09-21T14:54:15.453Z,4.10
2018-09-21T14:56:44.139Z,2.47
2018-09-21T14:59:13.221Z,5.47
2018-09-21T15:01:42.005Z,4.13
2018-09-21T15:04:10.700Z,5.37
2018-09-21T15:06:39.548Z,2.77
2018-09-21T15:09:09.935Z,3.87
2018-09-21T15:11:39.237Z,3.80
2018-09-21T15:14:08.287Z,4.13
2018-09-21T15:16:37.292Z,5.77
2018-09-21T15:19:06.139Z,5.47
2018-09-21T15:21:35.420Z,6.17
2018-09-21T15:24:04.345Z,6.67
2018-09-21T15:26:33.079Z,3.70
2018-09-21T15:29:01.997Z,5.87
2018-09-21T15:31:30.894Z,5.50
2018-09-21T15:33:59.548Z,4.43
2018-09-21T15:36:28.290Z,5.40
2018-09-21T15:38:57.358Z,4.27
2018-09-21T15:41:26.178Z,6.60
2018-09-21T15:43:55.050Z,8.07
2018-09-21T15:46:24.137Z,7.90
2018-09-21T15:48:53.216Z,7.37
2018-09-21T15:51:21.987Z,7.27
2018-09-21T15:53:51.016Z,6.67
2018-09-21T15:56:20.003Z,6.33
2018-09-21T15:58:48.788Z,4.87
2018-09-21T16:01:17.731Z,8.70
2018-09-21T16:03:46.460Z,10.67
2018-09-21T16:06:15.266Z,7.20
2018-09-21T16:08:44.369Z,5.90
2018-09-21T16:11:13.409Z,7.60
2018-09-21T16:13:42.399Z,6.10
2018-09-21T16:16:11.147Z,5.53
2018-09-21T16:18:40.004Z,3.53
2018-09-21T16:21:08.936Z,4.83
2018-09-21T16:23:37.621Z,3.43
2018-09-21T16:26:06.276Z,6.27
2018-09-21T16:28:35.012Z,4.13
2018-09-21T16:31:03.748Z,4.83
2018-09-21T16:33:32.506Z,1.93
2018-09-21T16:36:01.255Z,2.47
2018-09-21T16:38:29.956Z,3.03
2018-09-21T16:40:58.823Z,2.77
2018-09-21T16:43:27.661Z,1.77
2018-09-21T16:45:56.348Z,0.80
2018-09-21T16:48:25.231Z,2.20
2018-09-21T16:50:54.137Z,1.80
2018-09-21T16:53:23.376Z,2.57
2018-09-21T16:55:52.070Z,2.33
2018-09-21T16:58:21.196Z,1.03
2018-09-21T17:00:50.200Z,2.97
2018-09-21T17:03:19.257Z,3.60
2018-09-21T17:05:48.201Z,3.47
2018-09-21T17:08:16.913Z,2.33
2018-09-21T17:10:45.960Z,1.47
2018-09-21T17:13:14.936Z,2.47
2018-09-21T17:15:44.467Z,1.70
2018-09-21T17:18:13.211Z,2.80
2018-09-21T17:20:41.980Z,1.77
2018-09-21T17:23:11.161Z,3.37
2018-09-21T17:25:40.215Z,5.10
2018-09-21T17:28:09.228Z,2.23
2018-09-21T17:30:38.532Z,1.90
2018-09-21T17:33:07.561Z,3.80
2018-09-21T17:35:36.711Z,4.97
2018-09-21T17:38:06.181Z,4.33
2018-09-21T17:40:35.336Z,5.30
2018-09-21T17:43:04.239Z,5.23
2018-09-21T17:45:32.937Z,6.60
2018-09-21T17:48:01.870Z,10.47
2018-09-21T17:50:31.058Z,15.07
2018-09-21T17:53:00.268Z,10.37
2018-09-21T17:55:29.188Z,11.33
2018-09-21T17:57:58.098Z,12.13
2018-09-21T18:00:27.100Z,13.13
2018-09-21T18:02:56.037Z,10.23
2018-09-21T18:05:25.036Z,12.20
2018-09-21T18:07:53.992Z,16.67
2018-09-21T18:10:22.988Z,20.50
2018-09-21T18:12:51.901Z,17.47
2018-09-21T18:15:21.382Z,17.07
2018-09-21T18:17:50.508Z,18.03
2018-09-21T18:20:19.600Z,17.17
2018-09-21T18:22:48.665Z,21.30
2018-09-21T18:25:18.325Z,19.77
2018-09-21T18:27:47.016Z,17.43
2018-09-21T18:30:16.601Z,20.83
2018-09-21T18:32:45.631Z,23.00
2018-09-21T18:35:15.716Z,21.67
2018-09-21T18:37:44.901Z,19.43
2018-09-21T18:40:14.643Z,21.37
2018-09-21T18:42:43.311Z,22.17
2018-09-21T18:45:12.051Z,22.00
2018-09-21T18:47:42.062Z,22.03
2018-09-21T18:50:10.908Z,26.30
2018-09-21T18:52:41.643Z,20.37
2018-09-21T18:55:10.666Z,27.60
2018-09-21T18:57:39.593Z,21.23
2018-09-21T19:00:09.197Z,30.17
2018-09-21T19:02:38.026Z,25.03
2018-09-21T19:05:07.038Z,24.97
2018-09-21T19:07:35.873Z,26.43
2018-09-21T19:10:04.848Z,31.50
2018-09-21T19:12:33.634Z,22.73
2018-09-21T19:15:02.482Z,27.37
2018-09-21T19:17:31.220Z,25.27
2018-09-21T19:20:00.451Z,25.67
2018-09-21T19:22:29.512Z,26.53
2018-09-21T19:24:58.469Z,21.97
2018-09-21T19:27:27.285Z,21.13
2018-09-21T19:29:56.426Z,25.07
2018-09-21T19:32:25.326Z,26.80
2018-09-21T19:34:54.562Z,23.53
2018-09-21T19:37:24.039Z,24.13
2018-09-21T19:39:53.311Z,23.03
2018-09-21T19:42:22.286Z,24.83
2018-09-21T19:44:51.292Z,21.30
2018-09-21T19:47:21.015Z,21.67
2018-09-21T19:49:50.337Z,24.47
2018-09-21T19:52:19.919Z,23.07
2018-09-21T19:54:49.007Z,19.53
2018-09-21T19:57:18.191Z,23.37
2018-09-21T19:59:47.423Z,20.70
2018-09-21T20:02:16.202Z,25.17
2018-09-21T20:04:45.002Z,18.37
2018-09-21T20:07:14.016Z,20.57
2018-09-21T20:09:43.114Z,20.07
2018-09-21T20:12:12.609Z,21.83
2018-09-21T20:14:41.906Z,17.30
2018-09-21T20:17:10.668Z,23.93
2018-09-21T20:19:39.691Z,22.37
2018-09-21T20:22:09.735Z,25.00
2018-09-21T20:24:38.861Z,21.00
2018-09-21T20:27:07.928Z,21.43
2018-09-21T20:29:38.375Z,20.07
2018-09-21T20:32:13.865Z,22.73
2018-09-21T20:34:42.806Z,19.57
2018-09-21T20:37:11.819Z,20.87
2018-09-21T20:39:40.802Z,19.20
2018-09-21T20:42:09.849Z,21.80
2018-09-21T20:44:38.918Z,25.10
2018-09-21T20:47:08.037Z,19.57
2018-09-21T20:49:37.059Z,23.23
2018-09-21T20:52:06.475Z,20.90
2018-09-21T20:54:35.501Z,23.40
2018-09-21T20:57:04.383Z,21.20
2018-09-21T20:59:33.444Z,25.37
2018-09-21T21:02:02.436Z,30.70
2018-09-21T21:04:31.434Z,23.77
2018-09-21T21:07:00.289Z,19.63
2018-09-21T21:09:29.202Z,23.43
2018-09-21T21:11:58.200Z,21.93
2018-09-21T21:14:27.068Z,20.70
2018-09-21T21:16:55.985Z,24.30
2018-09-21T21:19:24.918Z,19.17
2018-09-21T21:21:56.349Z,24.20
2018-09-21T21:24:26.513Z,19.67
2018-09-21T21:26:55.692Z,21.63
2018-09-21T21:32:56.819Z,19.13
2018-09-21T21:35:25.479Z,21.70
2018-09-21T21:37:54.555Z,24.23
2018-09-21T21:40:24.512Z,18.97
2018-09-21T21:42:53.292Z,30.30
2018-09-21T21:45:22.221Z,24.67
2018-09-21T21:47:51.918Z,25.80
2018-09-21T21:50:20.547Z,25.63
2018-09-21T21:52:49.268Z,24.13
2018-09-21T21:55:17.975Z,26.90
2018-09-21T21:57:46.744Z,23.77
2018-09-21T22:00:15.875Z,20.67
2018-09-21T22:02:44.751Z,25.03
2018-09-21T22:05:13.615Z,23.97
2018-09-21T22:07:42.263Z,23.97
2018-09-21T22:10:11.018Z,21.43
2018-09-21T22:12:44.932Z,21.43
2018-09-21T22:15:19.076Z,28.13
2018-09-21T22:17:49.066Z,27.70
2018-09-21T22:20:18.193Z,28.93
2018-09-21T22:22:47.082Z,23.40
2018-09-21T22:25:16.081Z,31.07
2018-09-21T22:27:44.932Z,24.20
2018-09-21T22:30:14.170Z,26.30
2018-09-21T22:32:43.024Z,27.27
2018-09-21T22:35:11.718Z,27.73
2018-09-21T22:37:40.565Z,26.10
2018-09-21T22:40:09.530Z,27.73
2018-09-21T22:42:38.196Z,30.33
2018-09-21T22:45:07.173Z,30.43
2018-09-21T22:47:35.750Z,30.90
2018-09-21T22:50:04.668Z,26.17
2018-09-21T22:52:33.386Z,35.80
2018-09-21T22:55:02.136Z,25.90
2018-09-21T22:57:31.032Z,32.50
2018-09-21T22:59:59.838Z,32.43
2018-09-21T23:02:28.792Z,33.00
2018-09-21T23:04:57.939Z,29.37
2018-09-21T23:07:27.013Z,30.93
2018-09-21T23:09:55.698Z,28.70
2018-09-21T23:12:24.588Z,32.20
2018-09-21T23:14:53.237Z,28.83
2018-09-21T23:17:21.984Z,32.33
2018-09-21T23:19:50.585Z,28.63
2018-09-21T23:22:19.262Z,27.57
2018-09-21T23:24:48.761Z,29.97
2018-09-21T23:27:17.616Z,30.33
2018-09-21T23:29:46.327Z,27.53
2018-09-21T23:32:15.108Z,34.93
2018-09-21T23:34:43.863Z,29.30
2018-09-21T23:37:12.622Z,26.90
2018-09-21T23:39:41.422Z,27.33
2018-09-21T23:42:10.313Z,24.33
2018-09-21T23:44:38.962Z,27.37
2018-09-21T23:47:07.845Z,26.53
2018-09-21T23:49:36.610Z,26.17
2018-09-21T23:52:05.697Z,28.57
2018-09-21T23:54:34.887Z,26.63
2018-09-21T23:57:03.572Z,23.13
2018-09-21T23:59:32.346Z,26.93
